createdAt,value
2017-09-05T00:01:07.841Z,13.13
2017-09-05T00:03:34.080Z,13.24
2017-09-05T00:06:00.326Z,13.30
2017-09-05T00:11:24.470Z,13.35
2017-09-05T00:13:54.698Z,13.10
2017-09-05T00:16:21.958Z,13.05
2017-09-05T00:18:53.217Z,13.16
2017-09-05T00:21:20.462Z,13.07
2017-09-05T00:23:46.709Z,12.99
2017-09-05T00:26:12.949Z,12.99
2017-09-05T00:28:39.242Z,13.20
2017-09-05T00:31:05.491Z,13.20
2017-09-05T00:33:31.729Z,13.12
2017-09-05T00:35:58.018Z,13.18
2017-09-05T00:38:24.279Z,13.27
2017-09-05T00:40:50.535Z,13.20
2017-09-05T00:43:17.133Z,13.31
2017-09-05T00:45:43.415Z,13.21
2017-09-05T00:48:09.646Z,13.16
2017-09-05T00:50:35.944Z,13.02
2017-09-05T00:53:02.219Z,12.91
2017-09-05T00:55:28.470Z,13.02
2017-09-05T00:57:55.121Z,12.84
2017-09-05T01:00:21.369Z,12.86
2017-09-05T01:02:47.621Z,12.82
2017-09-05T01:05:13.897Z,13.01
2017-09-05T01:07:40.412Z,12.96
2017-09-05T01:10:06.666Z,12.87
2017-09-05T01:12:32.978Z,12.97
2017-09-05T01:14:59.254Z,12.87
2017-09-05T01:17:25.761Z,12.83
2017-09-05T01:19:52.010Z,12.87
2017-09-05T01:22:18.255Z,12.92
2017-09-05T01:24:44.750Z,12.88
2017-09-05T01:27:10.978Z,12.76
2017-09-05T01:29:37.207Z,12.70
2017-09-05T01:32:03.476Z,12.47
2017-09-05T01:34:29.750Z,12.69
2017-09-05T01:36:55.986Z,12.71
2017-09-05T01:39:22.208Z,12.71
2017-09-05T01:41:48.484Z,12.70
2017-09-05T01:44:14.734Z,12.65
2017-09-05T01:46:40.954Z,12.51
2017-09-05T01:49:07.226Z,12.53
2017-09-05T01:51:33.461Z,12.68
2017-09-05T01:53:59.699Z,12.51
2017-09-05T01:56:26.050Z,12.46
2017-09-05T01:58:52.349Z,12.48
2017-09-05T02:01:18.593Z,12.45
2017-09-05T02:03:44.861Z,12.53
2017-09-05T02:06:11.094Z,12.62
2017-09-05T02:08:37.321Z,12.56
2017-09-05T02:11:03.589Z,12.55
2017-09-05T02:13:29.825Z,12.76
2017-09-05T02:15:56.113Z,12.59
2017-09-05T02:18:22.357Z,12.46
2017-09-05T02:20:48.585Z,12.39
2017-09-05T02:23:14.868Z,12.56
2017-09-05T02:25:41.107Z,12.58
2017-09-05T02:28:07.321Z,12.53
2017-09-05T02:30:33.573Z,12.48
2017-09-05T02:32:59.802Z,12.58
2017-09-05T02:35:26.054Z,12.62
2017-09-05T02:37:52.308Z,12.62
2017-09-05T02:40:18.535Z,12.71
2017-09-05T02:42:44.766Z,12.66
2017-09-05T02:45:11.042Z,12.73
2017-09-05T02:47:37.270Z,12.64
2017-09-05T02:50:03.492Z,12.64
2017-09-05T02:52:29.766Z,12.58
2017-09-05T02:54:56.007Z,12.58
2017-09-05T02:57:22.250Z,12.35
2017-09-05T02:59:48.769Z,12.18
2017-09-05T03:02:15.011Z,11.86
2017-09-05T03:04:41.245Z,11.89
2017-09-05T03:07:07.517Z,11.99
2017-09-05T03:09:33.743Z,11.89
2017-09-05T03:11:59.982Z,11.91
2017-09-05T03:14:26.253Z,11.91
2017-09-05T03:16:52.485Z,11.95
2017-09-05T03:19:18.717Z,12.17
2017-09-05T03:21:44.977Z,12.04
2017-09-05T03:24:11.226Z,11.96
2017-09-05T03:26:37.447Z,11.99
2017-09-05T03:29:03.699Z,12.17
2017-09-05T03:31:29.933Z,12.19
2017-09-05T03:33:56.183Z,12.15
2017-09-05T03:36:22.416Z,12.28
2017-09-05T03:38:48.641Z,12.17
2017-09-05T03:41:15.154Z,12.02
2017-09-05T03:43:41.378Z,12.02
2017-09-05T03:46:07.614Z,11.95
2017-09-05T03:48:33.905Z,11.97
2017-09-05T03:51:00.142Z,12.05
2017-09-05T03:53:26.369Z,12.27
2017-09-05T03:55:52.657Z,12.11
2017-09-05T03:58:18.934Z,12.15
2017-09-05T04:00:45.214Z,12.18
2017-09-05T04:03:11.494Z,12.15
2017-09-05T04:05:37.718Z,12.46
2017-09-05T04:08:03.940Z,12.30
2017-09-05T04:10:30.195Z,12.52
2017-09-05T04:12:56.437Z,12.30
2017-09-05T04:15:22.711Z,12.14
2017-09-05T04:17:49.223Z,12.18
2017-09-05T04:20:15.468Z,12.14
2017-09-05T04:22:41.735Z,12.04
2017-09-05T04:25:07.961Z,12.20
2017-09-05T04:27:34.189Z,12.30
2017-09-05T04:30:00.434Z,12.31
2017-09-05T04:32:26.646Z,12.23
2017-09-05T04:34:52.885Z,12.06
2017-09-05T04:37:19.165Z,12.10
2017-09-05T04:39:45.393Z,12.26
2017-09-05T04:42:11.636Z,12.31
2017-09-05T04:44:37.890Z,12.34
2017-09-05T04:47:04.117Z,12.18
2017-09-05T04:49:30.371Z,12.15
2017-09-05T04:51:56.597Z,12.04
2017-09-05T04:54:22.843Z,12.18
2017-09-05T04:56:49.122Z,12.17
2017-09-05T04:59:15.350Z,12.12
2017-09-05T05:01:41.586Z,12.03
2017-09-05T05:04:07.929Z,12.01
2017-09-05T05:06:34.176Z,12.01
2017-09-05T05:09:00.418Z,11.88
2017-09-05T05:11:26.693Z,12.03
2017-09-05T05:13:52.926Z,12.27
2017-09-05T05:16:19.161Z,12.19
2017-09-05T05:18:45.392Z,12.00
2017-09-05T05:21:11.633Z,12.03
2017-09-05T05:23:38.000Z,12.16
2017-09-05T05:26:04.222Z,12.40
2017-09-05T05:28:30.465Z,12.24
2017-09-05T05:30:56.782Z,12.35
2017-09-05T05:33:23.004Z,12.51
2017-09-05T05:35:49.226Z,12.49
2017-09-05T05:38:15.486Z,12.38
2017-09-05T05:40:41.734Z,12.32
2017-09-05T05:43:07.963Z,12.20
2017-09-05T05:45:34.237Z,12.25
2017-09-05T05:48:00.475Z,12.24
2017-09-05T05:50:26.707Z,12.32
2017-09-05T05:52:52.933Z,12.45
2017-09-05T05:55:19.177Z,12.50
2017-09-05T05:57:45.433Z,12.75
2017-09-05T06:00:11.697Z,12.71
2017-09-05T06:02:37.942Z,12.61
2017-09-05T06:05:04.205Z,12.68
2017-09-05T06:07:30.430Z,12.71
2017-09-05T06:09:56.675Z,12.82
2017-09-05T06:12:22.955Z,12.88
2017-09-05T06:14:49.178Z,12.86
2017-09-05T06:17:15.412Z,12.87
2017-09-05T06:19:41.684Z,13.05
2017-09-05T06:22:07.912Z,13.05
2017-09-05T06:24:34.161Z,13.13
2017-09-05T06:27:00.705Z,13.22
2017-09-05T06:29:26.938Z,13.29
2017-09-05T06:31:53.179Z,13.30
2017-09-05T06:34:19.473Z,13.37
2017-09-05T06:36:45.801Z,13.50
2017-09-05T06:39:12.038Z,13.58
2017-09-05T06:41:38.304Z,13.64
2017-09-05T06:44:04.526Z,13.73
2017-09-05T06:46:30.775Z,13.79
2017-09-05T06:48:57.236Z,13.90
2017-09-05T06:51:23.466Z,13.98
2017-09-05T06:53:49.698Z,14.12
2017-09-05T06:56:15.942Z,14.18
2017-09-05T06:58:42.499Z,14.23
2017-09-05T07:01:08.738Z,14.38
2017-09-05T07:03:35.042Z,14.42
2017-09-05T07:06:01.277Z,14.52
2017-09-05T07:08:27.513Z,14.62
2017-09-05T07:10:53.753Z,14.69
2017-09-05T07:13:19.975Z,14.80
2017-09-05T07:15:46.196Z,14.97
2017-09-05T07:18:12.618Z,15.00
2017-09-05T07:20:38.850Z,15.05
2017-09-05T07:23:05.096Z,15.06
2017-09-05T07:25:31.710Z,15.17
2017-09-05T07:27:57.956Z,15.25
2017-09-05T07:30:24.205Z,15.39
2017-09-05T07:32:50.470Z,15.42
2017-09-05T07:35:16.706Z,15.41
2017-09-05T07:37:42.954Z,15.55
2017-09-05T07:40:10.614Z,15.59
2017-09-05T07:42:36.901Z,15.60
2017-09-05T07:45:03.173Z,15.77
2017-09-05T07:47:29.426Z,15.79
2017-09-05T07:49:55.686Z,15.83
2017-09-05T07:52:22.166Z,15.93
2017-09-05T07:54:48.401Z,15.97
2017-09-05T07:57:14.638Z,16.00
2017-09-05T07:59:40.909Z,16.04
2017-09-05T08:02:07.137Z,16.08
2017-09-05T08:04:33.383Z,16.15
2017-09-05T08:06:59.651Z,16.26
2017-09-05T08:09:25.890Z,16.43
2017-09-05T08:11:52.108Z,16.49
2017-09-05T08:14:18.353Z,16.49
2017-09-05T08:16:44.592Z,16.56
2017-09-05T08:19:10.918Z,16.73
2017-09-05T08:21:37.155Z,16.76
2017-09-05T08:24:03.393Z,16.86
2017-09-05T08:26:29.963Z,16.94
2017-09-05T08:28:56.230Z,17.06
2017-09-05T08:31:22.462Z,17.12
2017-09-05T08:33:48.817Z,17.21
2017-09-05T08:36:15.050Z,17.33
2017-09-05T08:38:41.275Z,17.42
2017-09-05T08:41:07.493Z,17.45
2017-09-05T08:43:33.722Z,17.56
2017-09-05T08:46:00.007Z,17.62
2017-09-05T08:48:26.825Z,17.76
2017-09-05T08:50:53.288Z,17.86
2017-09-05T08:53:19.557Z,18.03
2017-09-05T08:55:45.783Z,18.12
2017-09-05T08:58:12.014Z,18.29
2017-09-05T09:00:38.279Z,18.54
2017-09-05T09:03:04.518Z,18.69
2017-09-05T09:05:31.073Z,18.74
2017-09-05T09:07:57.587Z,18.87
2017-09-05T09:10:23.818Z,18.87
2017-09-05T09:12:50.036Z,18.82
2017-09-05T09:15:16.296Z,18.92
2017-09-05T09:17:42.522Z,18.99
2017-09-05T09:20:08.751Z,19.07
2017-09-05T09:22:35.015Z,19.26
2017-09-05T09:25:01.280Z,19.44
2017-09-05T09:27:27.511Z,19.58
2017-09-05T09:29:53.766Z,19.69
2017-09-05T09:32:19.993Z,19.81
2017-09-05T09:34:46.254Z,19.95
2017-09-05T09:37:12.510Z,20.15
2017-09-05T09:39:38.761Z,20.08
2017-09-05T09:42:05.023Z,20.04
2017-09-05T09:44:31.246Z,19.97
2017-09-05T09:46:57.483Z,20.12
2017-09-05T09:49:23.754Z,20.37
2017-09-05T09:51:49.986Z,20.46
2017-09-05T09:54:16.212Z,20.40
2017-09-05T09:56:42.657Z,20.65
2017-09-05T09:59:08.890Z,20.79
2017-09-05T10:01:42.178Z,20.98
2017-09-05T10:04:08.412Z,21.02
2017-09-05T10:06:34.682Z,21.01
2017-09-05T10:09:00.931Z,21.18
2017-09-05T10:11:27.159Z,21.47
2017-09-05T10:13:53.392Z,21.48
2017-09-05T10:16:19.681Z,21.43
2017-09-05T10:18:45.915Z,21.47
2017-09-05T10:21:12.157Z,21.43
2017-09-05T10:23:38.407Z,21.45
2017-09-05T10:26:04.639Z,21.42
2017-09-05T10:28:30.907Z,21.48
2017-09-05T10:30:57.141Z,21.43
2017-09-05T10:33:23.378Z,21.61
2017-09-05T10:35:49.638Z,21.86
2017-09-05T10:38:15.858Z,21.96
2017-09-05T10:40:42.084Z,21.88
2017-09-05T10:43:08.342Z,21.88
2017-09-05T10:45:34.590Z,21.93
2017-09-05T10:48:00.821Z,22.04
2017-09-05T10:50:27.062Z,22.36
2017-09-05T10:52:53.300Z,22.50
2017-09-05T10:55:19.537Z,22.40
2017-09-05T10:57:45.781Z,22.41
2017-09-05T11:00:12.018Z,22.26
2017-09-05T11:02:38.262Z,22.28
2017-09-05T11:05:04.727Z,22.47
2017-09-05T11:07:31.171Z,22.27
2017-09-05T11:09:57.411Z,22.19
2017-09-05T11:12:31.186Z,22.29
2017-09-05T11:14:57.406Z,22.35
2017-09-05T11:17:23.628Z,22.48
2017-09-05T11:19:49.884Z,22.54
2017-09-05T11:22:16.132Z,22.54
2017-09-05T11:24:42.363Z,22.68
2017-09-05T11:27:08.654Z,22.70
2017-09-05T11:29:34.894Z,22.63
2017-09-05T11:32:01.125Z,22.68
2017-09-05T11:34:27.549Z,22.66
2017-09-05T11:36:54.476Z,22.80
2017-09-05T11:39:20.947Z,22.79
2017-09-05T11:41:47.186Z,22.83
2017-09-05T11:44:13.796Z,22.95
2017-09-05T11:46:40.034Z,22.95
2017-09-05T11:49:06.255Z,22.92
2017-09-05T11:51:32.609Z,22.79
2017-09-05T11:53:58.838Z,22.81
2017-09-05T11:56:25.081Z,22.95
2017-09-05T11:58:51.331Z,22.92
2017-09-05T12:01:17.561Z,22.68
2017-09-05T12:03:43.790Z,23.03
2017-09-05T12:06:10.058Z,23.22
2017-09-05T12:08:36.335Z,23.42
2017-09-05T12:11:02.569Z,23.42
2017-09-05T12:13:28.818Z,23.62
2017-09-05T12:15:55.063Z,23.64
2017-09-05T12:18:21.349Z,23.85
2017-09-05T12:20:47.591Z,23.98
2017-09-05T12:23:13.833Z,24.44
2017-09-05T12:25:40.110Z,24.72
2017-09-05T12:28:06.361Z,24.97
2017-09-05T12:30:32.628Z,24.82
2017-09-05T12:32:59.117Z,24.48
2017-09-05T12:35:26.089Z,24.32
2017-09-05T12:37:52.328Z,24.41
2017-09-05T12:40:18.593Z,23.97
2017-09-05T12:42:44.850Z,23.91
2017-09-05T12:45:11.098Z,23.93
2017-09-05T12:47:37.354Z,23.91
2017-09-05T12:50:03.604Z,23.82
2017-09-05T12:52:29.842Z,23.94
2017-09-05T12:54:56.097Z,24.03
2017-09-05T12:57:22.324Z,24.00
2017-09-05T12:59:48.547Z,24.08
2017-09-05T13:02:14.814Z,23.98
2017-09-05T13:04:41.033Z,23.93
2017-09-05T13:07:07.267Z,23.83
2017-09-05T13:09:33.533Z,23.96
2017-09-05T13:11:59.890Z,24.10
2017-09-05T13:14:26.135Z,24.48
2017-09-05T13:16:52.482Z,24.70
2017-09-05T13:19:18.702Z,24.96
2017-09-05T13:21:44.922Z,24.94
2017-09-05T13:24:11.174Z,25.33
2017-09-05T13:26:37.395Z,25.32
2017-09-05T13:29:03.649Z,25.23
2017-09-05T13:31:29.893Z,24.80
2017-09-05T13:33:56.131Z,24.39
2017-09-05T13:36:22.730Z,24.31
2017-09-05T13:38:48.957Z,24.12
2017-09-05T13:41:15.176Z,24.10
2017-09-05T13:43:41.412Z,24.08
2017-09-05T13:46:07.649Z,24.11
2017-09-05T13:48:33.915Z,24.33
2017-09-05T13:51:00.156Z,24.35
2017-09-05T13:53:26.378Z,24.31
2017-09-05T13:55:52.599Z,24.19
2017-09-05T13:58:19.574Z,24.05
2017-09-05T14:00:45.867Z,24.05
2017-09-05T14:03:12.097Z,23.96
2017-09-05T14:05:38.339Z,23.90
2017-09-05T14:08:04.742Z,23.69
2017-09-05T14:10:30.981Z,23.58
2017-09-05T14:12:57.215Z,23.55
2017-09-05T14:15:23.600Z,23.55
2017-09-05T14:17:49.825Z,23.53
2017-09-05T14:20:16.053Z,23.39
2017-09-05T14:22:42.711Z,23.37
2017-09-05T14:25:08.962Z,23.27
2017-09-05T14:27:35.202Z,23.21
2017-09-05T14:30:01.796Z,23.17
2017-09-05T14:32:28.025Z,23.08
2017-09-05T14:34:54.259Z,23.04
2017-09-05T14:37:20.680Z,23.01
2017-09-05T14:39:46.917Z,23.01
2017-09-05T14:42:13.153Z,22.89
2017-09-05T14:44:39.497Z,22.95
2017-09-05T14:47:05.716Z,22.86
2017-09-05T14:49:31.938Z,22.86
2017-09-05T14:51:58.464Z,22.86
2017-09-05T14:54:24.677Z,22.82
2017-09-05T14:56:50.925Z,22.72
2017-09-05T14:59:17.185Z,22.70
2017-09-05T15:01:43.406Z,22.74
2017-09-05T15:04:09.654Z,22.69
2017-09-05T15:06:35.894Z,22.70
2017-09-05T15:09:02.171Z,22.67
2017-09-05T15:11:28.405Z,22.63
2017-09-05T15:13:55.016Z,22.57
2017-09-05T15:16:21.254Z,22.53
2017-09-05T15:18:47.521Z,22.56
2017-09-05T15:21:13.762Z,22.53
2017-09-05T15:23:40.041Z,22.56
2017-09-05T15:26:06.289Z,22.59
2017-09-05T15:28:32.557Z,22.60
2017-09-05T15:30:59.356Z,22.57
2017-09-05T15:33:25.610Z,22.58
2017-09-05T15:35:51.865Z,22.57
2017-09-05T15:38:18.101Z,22.53
2017-09-05T15:40:44.345Z,22.56
2017-09-05T15:43:10.570Z,22.61
2017-09-05T15:45:36.809Z,22.58
2017-09-05T15:48:03.068Z,22.53
2017-09-05T15:50:29.291Z,22.49
2017-09-05T15:52:55.517Z,22.46
2017-09-05T15:55:21.797Z,22.43
2017-09-05T15:57:48.030Z,22.40
2017-09-05T16:00:14.287Z,22.35
2017-09-05T16:02:40.556Z,22.28
2017-09-05T16:05:06.801Z,22.17
2017-09-05T16:07:33.037Z,22.15
2017-09-05T16:09:59.286Z,22.16
2017-09-05T16:12:25.510Z,22.12
2017-09-05T16:14:51.879Z,22.10
2017-09-05T16:17:18.110Z,22.07
2017-09-05T16:19:44.335Z,22.05
2017-09-05T16:22:10.592Z,21.98
2017-09-05T16:24:36.829Z,21.99
2017-09-05T16:27:03.083Z,21.97
2017-09-05T16:29:29.329Z,21.93
2017-09-05T16:31:55.567Z,21.89
2017-09-05T16:34:21.810Z,21.83
2017-09-05T16:36:48.046Z,21.77
2017-09-05T16:39:14.275Z,21.72
2017-09-05T16:41:40.563Z,21.71
2017-09-05T16:44:06.806Z,21.66
2017-09-05T16:46:33.110Z,21.61
2017-09-05T16:48:59.362Z,21.53
2017-09-05T16:51:25.699Z,21.57
2017-09-05T16:53:51.922Z,21.54
2017-09-05T16:56:18.174Z,21.55
2017-09-05T16:58:44.450Z,21.49
2017-09-05T17:01:10.678Z,21.42
2017-09-05T17:03:36.961Z,21.45
2017-09-05T17:06:03.202Z,21.47
2017-09-05T17:08:29.479Z,21.40
2017-09-05T17:10:55.721Z,21.37
2017-09-05T17:13:21.961Z,21.34
2017-09-05T17:15:48.476Z,21.37
2017-09-05T17:18:15.022Z,21.38
2017-09-05T17:20:41.629Z,21.37
2017-09-05T17:23:07.897Z,21.40
2017-09-05T17:25:34.125Z,21.41
2017-09-05T17:28:00.352Z,21.41
2017-09-05T17:30:27.260Z,21.42
2017-09-05T17:32:53.486Z,21.39
2017-09-05T17:35:19.739Z,21.34
2017-09-05T17:37:45.969Z,21.31
2017-09-05T17:40:12.209Z,21.24
2017-09-05T17:42:38.828Z,21.18
2017-09-05T17:45:05.108Z,21.17
2017-09-05T17:47:31.335Z,21.14
2017-09-05T17:49:57.820Z,21.12
2017-09-05T17:52:24.047Z,21.09
2017-09-05T17:54:50.533Z,21.14
2017-09-05T17:57:18.343Z,21.15
2017-09-05T17:59:44.857Z,21.16
2017-09-05T18:02:11.090Z,21.16
2017-09-05T18:04:37.353Z,21.16
2017-09-05T18:07:03.590Z,21.14
2017-09-05T18:09:29.838Z,21.10
2017-09-05T18:11:56.127Z,21.04
2017-09-05T18:14:22.403Z,21.01
2017-09-05T18:16:48.629Z,21.02
2017-09-05T18:19:15.248Z,20.98
2017-09-05T18:21:41.473Z,20.95
2017-09-05T18:24:07.702Z,20.96
2017-09-05T18:26:33.942Z,21.01
2017-09-05T18:29:00.174Z,21.00
2017-09-05T18:31:26.414Z,20.99
2017-09-05T18:33:52.845Z,20.94
2017-09-05T18:36:19.095Z,20.91
2017-09-05T18:38:45.319Z,20.89
2017-09-05T18:41:12.001Z,20.85
2017-09-05T18:43:38.227Z,20.84
2017-09-05T18:46:04.461Z,20.81
2017-09-05T18:48:30.704Z,20.83
2017-09-05T18:50:57.036Z,20.82
2017-09-05T18:53:23.344Z,20.81
2017-09-05T18:55:49.545Z,20.79
2017-09-05T18:58:15.778Z,20.78
2017-09-05T19:00:42.329Z,20.80
2017-09-05T19:03:08.884Z,20.77
2017-09-05T19:05:35.374Z,20.75
2017-09-05T19:08:01.627Z,20.75
2017-09-05T19:10:27.857Z,20.77
2017-09-05T19:12:54.363Z,20.78
2017-09-05T19:15:20.606Z,20.78
2017-09-05T19:17:46.849Z,20.73
2017-09-05T19:20:13.387Z,20.72
2017-09-05T19:22:39.626Z,20.70
2017-09-05T19:25:05.858Z,20.67
2017-09-05T19:27:32.393Z,20.70
2017-09-05T19:29:58.642Z,20.70
2017-09-05T19:32:24.868Z,20.53
2017-09-05T19:34:51.235Z,20.48
2017-09-05T19:37:17.474Z,20.51
2017-09-05T19:39:43.705Z,20.53
2017-09-05T19:42:09.954Z,20.55
2017-09-05T19:44:36.189Z,20.53
2017-09-05T19:47:02.418Z,20.52
2017-09-05T19:49:28.665Z,20.54
2017-09-05T19:51:55.255Z,20.58
2017-09-05T19:54:21.514Z,20.56
2017-09-05T19:56:47.754Z,20.55
2017-09-05T19:59:14.008Z,20.57
2017-09-05T20:01:40.243Z,20.58
2017-09-05T20:04:06.531Z,20.56
2017-09-05T20:06:32.819Z,20.57
2017-09-05T20:08:59.164Z,20.56
2017-09-05T20:11:25.402Z,20.57
2017-09-05T20:13:51.681Z,20.58
2017-09-05T20:16:17.944Z,20.57
2017-09-05T20:18:44.183Z,20.59
2017-09-05T20:21:10.422Z,20.62
2017-09-05T20:23:36.925Z,20.60
2017-09-05T20:26:03.175Z,20.58
2017-09-05T20:28:29.428Z,20.57
2017-09-05T20:30:56.037Z,20.52
2017-09-05T20:33:22.261Z,20.55
2017-09-05T20:35:48.499Z,20.53
2017-09-05T20:38:14.773Z,20.51
2017-09-05T20:40:41.017Z,20.52
2017-09-05T20:43:07.254Z,20.47
2017-09-05T20:45:33.500Z,20.42
2017-09-05T20:47:59.720Z,20.41
2017-09-05T20:50:25.957Z,20.41
2017-09-05T20:52:52.199Z,20.40
2017-09-05T20:55:18.458Z,20.38
2017-09-05T20:57:44.679Z,20.34
2017-09-05T21:00:10.953Z,20.30
2017-09-05T21:02:37.195Z,20.25
2017-09-05T21:05:03.439Z,20.22
2017-09-05T21:07:29.678Z,20.23
2017-09-05T21:09:55.925Z,20.20
2017-09-05T21:12:22.207Z,20.20
2017-09-05T21:14:48.466Z,20.17
2017-09-05T21:17:14.698Z,20.12
2017-09-05T21:19:41.290Z,20.09
2017-09-05T21:22:07.528Z,20.07
2017-09-05T21:24:33.759Z,19.99
2017-09-05T21:27:00.301Z,19.99
2017-09-05T21:29:26.522Z,19.99
2017-09-05T21:31:52.762Z,19.93
2017-09-05T21:34:19.181Z,19.88
2017-09-05T21:36:45.409Z,19.88
2017-09-05T21:39:11.641Z,19.86
2017-09-05T21:41:37.915Z,19.87
2017-09-05T21:44:04.178Z,19.85
2017-09-05T21:46:30.418Z,19.85
2017-09-05T21:48:56.707Z,19.80
2017-09-05T21:51:22.935Z,19.80
2017-09-05T21:53:49.173Z,19.78
2017-09-05T21:56:15.431Z,19.80
2017-09-05T21:58:41.657Z,19.81
2017-09-05T22:01:07.903Z,19.83
2017-09-05T22:03:34.185Z,19.85
2017-09-05T22:06:00.405Z,19.84
2017-09-05T22:08:26.621Z,19.81
2017-09-05T22:10:52.894Z,19.81
2017-09-05T22:13:19.114Z,19.79
2017-09-05T22:15:45.350Z,19.78
2017-09-05T22:18:11.616Z,19.78
2017-09-05T22:20:44.050Z,19.76
2017-09-05T22:23:10.297Z,19.77
2017-09-05T22:25:42.751Z,19.76
2017-09-05T22:28:15.197Z,19.71
2017-09-05T22:30:41.440Z,19.65
2017-09-05T22:33:07.661Z,19.70
2017-09-05T22:35:34.160Z,19.63
2017-09-05T22:38:00.409Z,19.62
2017-09-05T22:40:26.629Z,19.58
2017-09-05T22:42:52.869Z,19.56
2017-09-05T22:45:19.093Z,19.56
2017-09-05T22:47:45.322Z,19.54
2017-09-05T22:50:11.817Z,19.56
2017-09-05T22:52:38.055Z,19.53
2017-09-05T22:55:05.324Z,19.53
2017-09-05T22:57:31.730Z,19.54
2017-09-05T22:59:57.953Z,19.51
2017-09-05T23:02:24.171Z,19.51
2017-09-05T23:04:50.403Z,19.49
2017-09-05T23:07:16.634Z,19.55
2017-09-05T23:09:43.035Z,19.53
2017-09-05T23:12:09.253Z,19.56
2017-09-05T23:14:35.496Z,19.58
2017-09-05T23:17:01.730Z,19.60
2017-09-05T23:19:27.949Z,19.62
2017-09-05T23:21:54.183Z,19.60
2017-09-05T23:24:20.418Z,19.61
2017-09-05T23:26:46.639Z,19.59
2017-09-05T23:29:12.891Z,19.52
2017-09-05T23:31:39.104Z,19.48
2017-09-05T23:34:05.318Z,19.36
2017-09-05T23:36:31.609Z,19.29
2017-09-05T23:38:57.837Z,19.27
2017-09-05T23:41:24.054Z,19.21
2017-09-05T23:43:50.665Z,19.18
2017-09-05T23:46:16.886Z,19.10
2017-09-05T23:48:43.101Z,19.04
2017-09-05T23:51:09.441Z,19.06
2017-09-05T23:53:35.662Z,19.05
2017-09-05T23:56:01.901Z,19.07
2017-09-05T23:58:28.157Z,19.02
